createdAt,value
2019-04-16T00:02:32.425Z,6.35
2019-04-16T00:07:40.802Z,5.77
2019-04-16T00:12:49.128Z,6.54
2019-04-16T00:17:57.557Z,5.87
2019-04-16T00:23:05.813Z,5.63
2019-04-16T00:28:14.188Z,7.78
2019-04-16T00:33:22.418Z,6.28
2019-04-16T00:38:40.658Z,5.91
2019-04-16T00:43:38.552Z,5.59
2019-04-16T00:48:46.892Z,5.42
2019-04-16T00:53:55.114Z,5.87
2019-04-16T00:59:03.337Z,5.65
2019-04-16T01:04:11.550Z,5.11
2019-04-16T01:09:19.882Z,5.56
2019-04-16T01:14:28.295Z,5.24
2019-04-16T01:19:38.348Z,5.60
2019-04-16T01:24:44.172Z,5.51
2019-04-16T01:29:52.389Z,5.55
2019-04-16T01:35:00.629Z,5.75
2019-04-16T01:40:08.924Z,5.42
2019-04-16T01:45:17.084Z,5.19
2019-04-16T01:50:25.340Z,5.45
2019-04-16T01:55:33.537Z,5.40
2019-04-16T02:00:41.933Z,5.35
2019-04-16T02:05:54.573Z,5.83
2019-04-16T02:10:44.237Z,5.66
2019-04-16T02:16:42.494Z,5.95
2019-04-16T02:21:50.850Z,5.76
2019-04-16T02:26:59.097Z,5.97
2019-04-16T02:32:07.573Z,5.56
2019-04-16T02:37:16.378Z,6.02
2019-04-16T02:42:30.670Z,6.08
2019-04-16T02:47:32.538Z,5.59
2019-04-16T02:52:40.959Z,6.03
2019-04-16T02:57:49.378Z,6.08
2019-04-16T03:02:57.776Z,6.17
2019-04-16T03:08:06.312Z,6.12
2019-04-16T03:13:14.618Z,6.31
2019-04-16T03:18:22.909Z,6.10
2019-04-16T03:23:31.350Z,6.02
2019-04-16T03:28:39.900Z,6.86
2019-04-16T03:33:50.481Z,6.01
2019-04-16T03:38:56.354Z,6.13
2019-04-16T03:44:05.114Z,6.24
2019-04-16T03:49:13.794Z,6.24
2019-04-16T03:54:22.599Z,6.24
2019-04-16T03:59:30.283Z,6.03
2019-04-16T04:04:39.455Z,6.72
2019-04-16T04:09:47.910Z,6.36
2019-04-16T04:14:56.401Z,6.42
2019-04-16T04:20:04.910Z,6.78
2019-04-16T04:25:13.414Z,6.11
2019-04-16T04:30:25.676Z,6.72
2019-04-16T04:35:30.898Z,6.51
2019-04-16T04:40:44.673Z,6.87
2019-04-16T04:45:47.314Z,6.99
2019-04-16T04:50:55.659Z,6.84
2019-04-16T04:56:04.298Z,6.58
2019-04-16T05:01:14.179Z,7.01
2019-04-16T05:06:21.190Z,6.70
2019-04-16T05:11:29.552Z,6.54
2019-04-16T05:16:38.135Z,6.83
2019-04-16T05:21:49.718Z,7.08
2019-04-16T05:26:56.322Z,6.98
2019-04-16T05:32:02.511Z,7.18
2019-04-16T05:37:11.091Z,7.16
2019-04-16T05:42:19.502Z,7.31
2019-04-16T05:47:28.160Z,6.93
2019-04-16T05:52:37.463Z,6.92
2019-04-16T05:57:46.534Z,6.96
2019-04-16T06:02:54.745Z,6.78
2019-04-16T06:08:03.190Z,7.26
2019-04-16T06:13:12.662Z,7.20
2019-04-16T06:18:19.376Z,6.67
2019-04-16T06:23:31.742Z,6.70
2019-04-16T06:28:35.767Z,6.90
2019-04-16T08:26:35.503Z,7.59
2019-04-16T08:31:44.899Z,7.32
2019-04-16T08:36:52.034Z,6.97
2019-04-16T11:16:18.375Z,10.57
2019-04-16T11:21:27.025Z,9.16
2019-04-16T14:58:57.133Z,6.22
2019-04-16T14:59:33.231Z,6.78
2019-04-16T14:59:58.328Z,6.32
2019-04-16T15:00:32.684Z,6.76
2019-04-16T15:01:06.866Z,5.58
2019-04-16T15:01:44.650Z,7.12
2019-04-16T15:02:19.008Z,5.88
2019-04-16T15:02:55.003Z,5.94
2019-04-16T15:08:53.554Z,6.66
2019-04-16T15:14:02.088Z,6.81
2019-04-16T15:19:10.606Z,7.53
2019-04-16T15:24:20.107Z,6.98
2019-04-16T15:29:27.825Z,6.86
2019-04-16T15:34:41.852Z,6.89
2019-04-16T15:39:48.287Z,7.01
2019-04-16T15:44:57.382Z,8.08
2019-04-16T15:50:08.876Z,8.13
2019-04-16T15:54:47.259Z,9.12
2019-04-16T16:15:45.734Z,9.00
2019-04-16T16:21:34.153Z,10.11
2019-04-16T16:24:58.295Z,9.52
2019-04-16T16:30:56.975Z,10.18
2019-04-16T16:36:05.529Z,9.70
2019-04-16T16:41:16.765Z,9.78
2019-04-16T16:46:15.479Z,10.87
2019-04-16T16:51:24.764Z,10.64
2019-04-16T16:56:36.938Z,10.95
2019-04-16T17:01:42.287Z,10.64
2019-04-16T17:06:54.661Z,10.22
2019-04-16T17:11:43.732Z,12.45
2019-04-16T17:16:52.987Z,10.87
2019-04-16T17:20:20.972Z,8.84
2019-04-16T17:26:10.422Z,9.91
2019-04-16T17:31:18.328Z,10.31
2019-04-16T17:36:26.678Z,9.55
2019-04-16T17:41:35.466Z,9.91
2019-04-16T17:52:08.853Z,9.53
2019-04-16T17:56:58.036Z,9.25
2019-04-16T18:02:06.775Z,9.48
2019-04-16T18:07:15.326Z,9.88
2019-04-16T18:12:23.780Z,9.79
2019-04-16T18:17:46.428Z,9.57
2019-04-16T18:22:41.901Z,9.26
2019-04-16T18:27:48.278Z,8.99
2019-04-16T18:32:56.898Z,10.04
2019-04-16T18:38:06.286Z,9.45
2019-04-16T18:43:14.555Z,9.79
2019-04-16T18:48:22.810Z,9.99
2019-04-16T18:53:31.221Z,10.49
2019-04-16T18:58:41.728Z,9.71
2019-04-16T19:03:47.434Z,9.73
2019-04-16T19:08:55.826Z,11.43
2019-04-16T19:14:04.366Z,9.82
2019-04-16T19:19:12.617Z,10.57
2019-04-16T19:24:20.998Z,10.85
2019-04-16T19:29:29.301Z,10.17
2019-04-16T19:34:40.963Z,10.03
2019-04-16T19:39:46.654Z,10.95
2019-04-16T19:44:52.966Z,10.49
2019-04-16T19:50:01.403Z,10.84
2019-04-16T19:55:12.002Z,9.85
2019-04-16T20:00:21.839Z,9.66
2019-04-16T20:05:28.794Z,10.17
2019-04-16T20:10:33.494Z,10.20
2019-04-16T20:15:43.685Z,10.10
2019-04-16T20:20:50.108Z,10.35
2019-04-16T20:26:00.606Z,10.14
2019-04-16T20:31:05.539Z,9.86
2019-04-16T20:36:13.833Z,9.29
2019-04-16T20:41:22.163Z,9.53
2019-04-16T20:46:30.661Z,9.37
2019-04-16T20:51:39.182Z,9.49
2019-04-16T20:56:50.045Z,9.30
2019-04-16T21:01:55.865Z,8.07
2019-04-16T21:07:03.173Z,8.53
2019-04-16T21:12:13.176Z,7.62
2019-04-16T21:17:19.309Z,7.61
2019-04-16T21:22:28.854Z,7.76
2019-04-16T21:27:35.790Z,8.35
2019-04-16T21:32:45.599Z,7.74
2019-04-16T21:37:51.821Z,7.90
2019-04-16T21:43:00.083Z,7.51
2019-04-16T21:48:12.537Z,7.01
2019-04-16T21:53:09.224Z,7.23
2019-04-16T21:58:17.813Z,7.60
2019-04-16T22:03:25.175Z,7.59
2019-04-16T22:08:33.713Z,7.17
2019-04-16T22:13:42.109Z,7.28
2019-04-16T22:18:50.567Z,7.99
2019-04-16T22:23:58.935Z,7.30
2019-04-16T22:29:07.454Z,8.33
2019-04-16T22:34:15.665Z,8.06
2019-04-16T22:39:23.894Z,8.72
2019-04-16T22:44:32.276Z,8.71
2019-04-16T22:49:40.577Z,8.56
2019-04-16T22:54:52.050Z,8.20
2019-04-16T22:59:56.591Z,8.51
2019-04-16T23:05:04.910Z,8.35
2019-04-16T23:10:13.374Z,8.07
2019-04-16T23:15:21.755Z,8.58
2019-04-16T23:20:33.418Z,9.39
2019-04-16T23:25:37.837Z,9.19
2019-04-16T23:30:48.045Z,9.04
2019-04-16T23:35:53.988Z,8.70
2019-04-16T23:41:02.285Z,8.96
2019-04-16T23:46:10.767Z,8.48
2019-04-16T23:51:19.788Z,9.39
2019-04-16T23:56:28.020Z,9.14
